Time;durP1;ratioP1;P1;durP2;ratioP2;P2;SDS_P1;SDS_P2;PMS_P1;PMS_P2;Temp;Humidity;BMP_temperature;BMP_pressure;BME280_temperature;BME280_humidity;BME280_pressure;Samples;Min_cycle;Max_cycle;Signal;HPM_P1;HPM_P2
2022/10/20 00:01:20;;;;;;;5.13;2.27;;;17.30;73.30;;;;;;5109681;27;20232;-80
2022/10/20 00:03:50;;;;;;;5.57;2.17;;;17.30;73.30;;;;;;5107271;27;20239;-82
2022/10/20 00:06:21;;;;;;;4.83;1.60;;;17.20;73.00;;;;;;5105853;27;20236;-79
2022/10/20 00:08:50;;;;;;;5.15;2.33;;;17.20;72.70;;;;;;5110128;28;20433;-81
2022/10/20 00:11:20;;;;;;;3.13;1.90;;;17.30;72.60;;;;;;5105568;28;20193;-81
2022/10/20 00:13:52;;;;;;;2.97;1.70;;;17.20;72.40;;;;;;5106666;27;20325;-81
2022/10/20 00:16:21;;;;;;;3.77;1.90;;;17.20;72.00;;;;;;5109647;27;20692;-76
2022/10/20 00:18:50;;;;;;;5.27;1.63;;;17.10;71.60;;;;;;5111294;28;20197;-80
2022/10/20 00:21:20;;;;;;;5.13;2.30;;;17.20;71.40;;;;;;5108696;27;20240;-82
2022/10/20 00:23:49;;;;;;;6.57;2.07;;;17.10;71.00;;;;;;5109944;28;20616;-80
2022/10/20 00:26:21;;;;;;;4.63;1.80;;;17.10;70.90;;;;;;5108504;27;20993;-78
2022/10/20 00:28:51;;;;;;;4.27;2.10;;;17.10;70.70;;;;;;5104829;27;20193;-79
2022/10/20 00:31:20;;;;;;;3.60;1.97;;;17.10;70.50;;;;;;5106318;28;20790;-80
2022/10/20 00:33:49;;;;;;;3.37;1.67;;;17.10;70.20;;;;;;5111582;27;20201;-82
2022/10/20 00:36:19;;;;;;;3.47;1.60;;;17.10;69.80;;;;;;5111340;27;20227;-80
2022/10/20 00:38:47;;;;;;;4.23;1.40;;;17.10;69.70;;;;;;5103866;28;20276;-80
2022/10/20 00:41:18;;;;;;;4.17;1.77;;;17.10;69.40;;;;;;5107240;27;20227;-79
2022/10/20 00:43:49;;;;;;;4.23;2.20;;;17.00;69.30;;;;;;5101612;27;20284;-78
2022/10/20 00:46:21;;;;;;;6.67;1.83;;;17.00;69.10;;;;;;5108414;28;20224;-82
2022/10/20 00:48:53;;;;;;;3.93;1.67;;;16.90;68.90;;;;;;5108430;27;20263;-80
2022/10/20 00:51:24;;;;;;;3.33;1.50;;;17.00;69.10;;;;;;5107620;28;20640;-82
2022/10/20 00:53:59;;;;;;;5.47;2.00;;;16.90;68.80;;;;;;5105950;27;20720;-81
2022/10/20 00:56:27;;;;;;;2.87;1.60;;;17.00;68.80;;;;;;5107514;27;20235;-83
2022/10/20 00:58:56;;;;;;;6.57;1.97;;;16.90;69.60;;;;;;5098837;28;20273;-81
2022/10/20 01:01:25;;;;;;;5.03;1.97;;;16.90;68.80;;;;;;5107408;27;20276;-82
2022/10/20 01:03:53;;;;;;;3.23;1.57;;;17.00;68.80;;;;;;5113644;27;20564;-83
2022/10/20 01:06:22;;;;;;;3.87;1.60;;;16.90;68.80;;;;;;5109922;27;20213;-81
2022/10/20 01:08:52;;;;;;;5.10;1.83;;;17.00;68.70;;;;;;5110410;27;20221;-80
2022/10/20 01:11:31;;;;;;;2.80;1.50;;;16.90;68.60;;;;;;5108692;27;20197;-81
2022/10/20 01:14:18;;;;;;;3.30;1.60;;;16.90;68.30;;;;;;5105335;27;20246;-80
2022/10/20 01:16:58;;;;;;;5.67;2.10;;;16.90;68.30;;;;;;5108129;27;20274;-80
2022/10/20 01:20:01;;;;;;;7.33;1.80;;;16.90;68.20;;;;;;5108353;27;20191;-79
2022/10/20 01:23:01;;;;;;;4.37;1.73;;;16.90;68.10;;;;;;5105837;28;20276;-75
2022/10/20 01:25:45;;;;;;;2.70;1.50;;;16.90;68.00;;;;;;5109808;28;20237;-80
2022/10/20 01:28:21;;;;;;;2.83;1.40;;;16.90;67.80;;;;;;5113187;27;20831;-81
2022/10/20 01:30:56;;;;;;;3.90;1.50;;;16.80;67.80;;;;;;5105884;27;20180;-80
2022/10/20 01:33:35;;;;;;;3.53;1.90;;;16.80;67.80;;;;;;5104990;28;20243;-82
2022/10/20 01:36:11;;;;;;;5.23;1.80;;;16.90;67.80;;;;;;5106979;27;20217;-82
2022/10/20 01:38:42;;;;;;;4.80;1.53;;;16.80;67.80;;;;;;5104988;28;20288;-80
2022/10/20 01:41:14;;;;;;;3.47;1.80;;;16.90;67.80;;;;;;5106125;27;20218;-80
2022/10/20 01:43:47;;;;;;;4.03;1.73;;;16.80;67.60;;;;;;5106473;28;20276;-82
2022/10/20 01:46:17;;;;;;;3.30;1.70;;;16.80;67.70;;;;;;5105058;28;20228;-79
2022/10/20 01:48:47;;;;;;;4.73;1.90;;;16.80;67.70;;;;;;5107339;27;20308;-79
2022/10/20 01:51:15;;;;;;;5.90;1.90;;;16.80;67.70;;;;;;5106272;27;20192;-81
2022/10/20 01:53:43;;;;;;;3.67;1.77;;;16.80;67.70;;;;;;5104860;28;20281;-81
2022/10/20 01:56:17;;;;;;;4.20;1.73;;;16.80;67.80;;;;;;5106377;28;20208;-81
2022/10/20 01:59:26;;;;;;;3.60;1.80;;;16.80;67.80;;;;;;5103427;27;20232;-80
2022/10/20 02:02:16;;;;;;;4.70;1.63;;;16.80;67.90;;;;;;5107187;27;20216;-80
2022/10/20 02:04:59;;;;;;;2.73;1.73;;;16.70;67.80;;;;;;5101196;28;21224;-78
2022/10/20 02:07:30;;;;;;;7.37;1.90;;;16.70;67.80;;;;;;5107952;28;20299;-79
2022/10/20 02:10:05;;;;;;;3.77;1.73;;;16.70;67.70;;;;;;5100920;28;20216;-80
2022/10/20 02:12:38;;;;;;;5.47;1.67;;;16.70;67.70;;;;;;5100540;27;20284;-79
2022/10/20 02:15:10;;;;;;;3.63;2.20;;;16.70;67.70;;;;;;5108988;28;20276;-80
2022/10/20 02:17:40;;;;;;;4.10;1.73;;;16.60;67.70;;;;;;5108336;28;20250;-79
2022/10/20 02:20:10;;;;;;;5.50;1.87;;;16.60;67.60;;;;;;5105185;28;20217;-80
2022/10/20 02:22:39;;;;;;;6.07;2.13;;;16.60;67.60;;;;;;5103829;27;20293;-81
2022/10/20 02:25:11;;;;;;;3.33;1.80;;;16.60;67.70;;;;;;5105752;28;20636;-81
2022/10/20 02:27:44;;;;;;;8.13;2.00;;;16.60;67.70;;;;;;5103722;28;20228;-78
2022/10/20 02:30:17;;;;;;;3.70;1.30;;;16.60;67.70;;;;;;5102677;28;20220;-80
2022/10/20 02:32:51;;;;;;;3.97;1.70;;;16.60;67.70;;;;;;5102621;28;20507;-79
2022/10/20 02:35:21;;;;;;;2.93;1.47;;;16.60;67.80;;;;;;5107953;28;20222;-80
2022/10/20 02:37:49;;;;;;;4.20;1.70;;;16.50;67.80;;;;;;5106885;28;20181;-80
2022/10/20 02:40:18;;;;;;;4.53;1.93;;;16.50;67.80;;;;;;5106228;28;20197;-80
2022/10/20 02:42:46;;;;;;;7.67;1.73;;;16.50;67.80;;;;;;5106891;28;20211;-80
2022/10/20 02:45:16;;;;;;;4.77;1.90;;;16.50;67.80;;;;;;5097259;28;20284;-81
2022/10/20 02:47:44;;;;;;;3.50;2.00;;;16.40;67.70;;;;;;5119037;27;20277;-80
2022/10/20 02:50:12;;;;;;;5.80;2.13;;;16.50;67.80;;;;;;5123954;28;20276;-81
2022/10/20 02:52:41;;;;;;;4.60;1.60;;;16.40;67.70;;;;;;5126708;28;20212;-80
2022/10/20 02:55:09;;;;;;;4.30;2.00;;;16.40;67.70;;;;;;5125093;28;20228;-82
2022/10/20 02:57:38;;;;;;;6.20;2.17;;;16.40;67.60;;;;;;5121029;28;20233;-80
2022/10/20 03:00:08;;;;;;;4.67;1.73;;;16.40;67.60;;;;;;5122205;28;20188;-80
2022/10/20 03:02:38;;;;;;;5.67;1.90;;;16.40;67.70;;;;;;5123404;28;20267;-79
2022/10/20 03:05:07;;;;;;;3.80;1.97;;;16.30;67.60;;;;;;5126057;28;20916;-80
2022/10/20 03:07:35;;;;;;;6.03;1.80;;;16.30;67.50;;;;;;5128034;28;20227;-80
2022/10/20 03:10:04;;;;;;;4.17;1.60;;;16.30;67.50;;;;;;5127584;28;20239;-80
2022/10/20 03:12:33;;;;;;;4.60;1.67;;;16.30;67.50;;;;;;5124577;28;20704;-81
2022/10/20 03:15:01;;;;;;;6.10;1.83;;;16.30;67.50;;;;;;5124688;28;20624;-81
2022/10/20 03:17:29;;;;;;;4.73;1.80;;;16.20;67.40;;;;;;5122401;28;20189;-81
2022/10/20 03:19:59;;;;;;;3.43;1.80;;;16.20;67.40;;;;;;5125822;28;20295;-82
2022/10/20 03:22:27;;;;;;;3.37;1.77;;;16.20;67.40;;;;;;5125443;28;20283;-80
2022/10/20 03:24:56;;;;;;;3.00;1.73;;;16.20;67.30;;;;;;5129144;28;20603;-81
2022/10/20 03:27:24;;;;;;;4.97;1.73;;;16.10;67.30;;;;;;5123956;28;20192;-80
2022/10/20 03:29:53;;;;;;;4.60;1.90;;;16.10;67.30;;;;;;5125235;28;20231;-81
2022/10/20 03:32:21;;;;;;;4.47;1.83;;;16.10;67.30;;;;;;5124474;28;20613;-80
2022/10/20 03:34:49;;;;;;;2.73;1.63;;;16.10;67.30;;;;;;5125457;28;20204;-81
2022/10/20 03:37:18;;;;;;;3.67;1.80;;;16.00;67.30;;;;;;5121938;28;20268;-78
2022/10/20 03:39:47;;;;;;;2.90;1.70;;;16.00;67.30;;;;;;5130023;28;20545;-80
2022/10/20 03:42:15;;;;;;;3.93;1.50;;;16.00;67.30;;;;;;5120840;28;20289;-80
2022/10/20 03:44:44;;;;;;;4.43;2.00;;;16.00;67.50;;;;;;5122805;28;20284;-80
2022/10/20 03:47:13;;;;;;;5.23;2.33;;;15.90;67.60;;;;;;5120147;28;20575;-81
2022/10/20 03:49:42;;;;;;;5.07;1.83;;;15.90;67.60;;;;;;5122141;28;20310;-81
2022/10/20 03:52:10;;;;;;;6.43;2.00;;;15.80;67.60;;;;;;5123399;28;20283;-80
2022/10/20 03:54:40;;;;;;;4.13;1.80;;;15.80;67.70;;;;;;5129037;27;20303;-79
2022/10/20 03:57:09;;;;;;;2.90;1.63;;;15.80;67.90;;;;;;5128484;27;20274;-81
2022/10/20 03:59:38;;;;;;;4.63;2.13;;;15.70;67.90;;;;;;5126197;27;20193;-80
2022/10/20 04:02:06;;;;;;;4.77;2.10;;;15.70;68.00;;;;;;5127557;27;20193;-80
2022/10/20 04:04:34;;;;;;;6.87;2.20;;;15.60;68.20;;;;;;5125724;27;20721;-80
2022/10/20 04:07:02;;;;;;;4.37;2.33;;;15.50;68.30;;;;;;5129470;27;20283;-79
2022/10/20 04:09:31;;;;;;;4.73;2.00;;;15.50;68.20;;;;;;5126877;27;20214;-80
2022/10/20 04:12:00;;;;;;;6.27;1.90;;;15.50;68.30;;;;;;5129133;27;20628;-79
2022/10/20 04:14:29;;;;;;;5.27;2.70;;;15.40;68.30;;;;;;5126312;27;20755;-80
2022/10/20 04:16:57;;;;;;;6.73;1.83;;;15.40;68.30;;;;;;5132906;27;20231;-80
2022/10/20 04:19:25;;;;;;;6.77;1.90;;;15.40;68.30;;;;;;5123959;27;20234;-80
2022/10/20 04:21:53;;;;;;;5.90;2.00;;;15.40;68.50;;;;;;5128260;27;20221;-80
2022/10/20 04:24:21;;;;;;;4.20;1.87;;;15.30;68.50;;;;;;5125022;27;20253;-81
2022/10/20 04:26:50;;;;;;;9.07;3.10;;;15.30;68.60;;;;;;5127759;27;20277;-76
2022/10/20 04:29:19;;;;;;;6.27;2.20;;;15.30;68.80;;;;;;5124880;27;20191;-78
2022/10/20 04:31:47;;;;;;;5.30;2.03;;;15.30;68.70;;;;;;5130345;27;20218;-79
2022/10/20 04:34:16;;;;;;;7.90;2.00;;;15.20;68.90;;;;;;5123867;27;20212;-81
2022/10/20 04:36:44;;;;;;;3.97;1.83;;;15.30;69.80;;;;;;5129800;27;20275;-80
2022/10/20 04:39:14;;;;;;;3.50;1.80;;;15.20;69.00;;;;;;5126520;27;20275;-80
2022/10/20 04:41:42;;;;;;;4.50;1.80;;;15.20;69.20;;;;;;5121706;27;20224;-81
2022/10/20 04:44:10;;;;;;;8.87;2.30;;;15.20;69.10;;;;;;5119844;27;20196;-79
2022/10/20 04:46:40;;;;;;;3.27;1.57;;;15.20;69.10;;;;;;5125060;27;20708;-80
2022/10/20 04:49:08;;;;;;;4.63;2.27;;;15.20;69.10;;;;;;5121301;27;20631;-82
2022/10/20 04:51:36;;;;;;;7.60;2.03;;;15.20;69.10;;;;;;5125805;27;20696;-78
2022/10/20 04:54:04;;;;;;;5.97;2.17;;;15.30;69.20;;;;;;5126796;27;20295;-80
2022/10/20 04:56:38;;;;;;;5.53;1.70;;;15.30;69.40;;;;;;5128407;27;20192;-81
2022/10/20 04:59:06;;;;;;;3.53;1.67;;;15.30;69.50;;;;;;5129974;27;20249;-79
2022/10/20 05:01:41;;;;;;;7.93;2.07;;;15.30;69.50;;;;;;5121346;27;20204;-77
2022/10/20 05:04:10;;;;;;;5.87;1.90;;;15.30;69.30;;;;;;5126568;27;20192;-76
2022/10/20 05:06:38;;;;;;;5.70;1.97;;;15.30;69.40;;;;;;5127240;27;20216;-78
2022/10/20 05:09:07;;;;;;;3.70;1.50;;;15.30;69.40;;;;;;5123278;27;22116;-82
2022/10/20 05:11:36;;;;;;;5.90;2.13;;;15.30;69.50;;;;;;5124723;27;20618;-78
2022/10/20 05:14:04;;;;;;;6.17;1.93;;;15.30;69.40;;;;;;5126805;27;20241;-81
2022/10/20 05:16:33;;;;;;;6.17;2.17;;;15.30;69.40;;;;;;5124719;27;20781;-76
2022/10/20 05:19:02;;;;;;;7.47;1.77;;;15.30;69.40;;;;;;5127886;27;20272;-79
2022/10/20 05:21:31;;;;;;;5.30;2.13;;;15.30;69.50;;;;;;5123478;27;20291;-79
2022/10/20 05:24:01;;;;;;;6.47;1.53;;;15.30;69.40;;;;;;5129072;27;20197;-80
2022/10/20 05:26:33;;;;;;;3.40;1.70;;;15.30;69.40;;;;;;5130632;27;20189;-80
2022/10/20 05:29:04;;;;;;;5.27;1.70;;;15.30;69.40;;;;;;5122885;27;20184;-81
2022/10/20 05:31:36;;;;;;;4.47;1.60;;;15.40;69.50;;;;;;5129684;27;20617;-82
2022/10/20 05:34:05;;;;;;;7.33;1.63;;;15.40;69.40;;;;;;5124649;27;20211;-82
2022/10/20 05:36:34;;;;;;;5.93;1.60;;;15.40;69.40;;;;;;5126487;27;20275;-79
2022/10/20 05:39:03;;;;;;;3.70;1.33;;;15.40;69.40;;;;;;5127204;27;20243;-80
2022/10/20 05:41:33;;;;;;;2.80;1.47;;;15.40;69.50;;;;;;5124903;27;20276;-78
2022/10/20 05:44:08;;;;;;;3.30;1.57;;;15.40;69.50;;;;;;5116469;27;20656;-78
2022/10/20 05:46:40;;;;;;;4.83;1.60;;;15.40;69.40;;;;;;5124593;27;20736;-80
2022/10/20 05:49:14;;;;;;;4.23;1.83;;;15.40;69.40;;;;;;5125188;27;20207;-81
2022/10/20 05:51:43;;;;;;;3.67;1.53;;;15.40;69.40;;;;;;5129197;27;20644;-80
2022/10/20 05:54:13;;;;;;;5.60;1.60;;;15.40;69.50;;;;;;5125692;27;20520;-78
2022/10/20 05:56:41;;;;;;;5.43;1.47;;;15.50;69.90;;;;;;5125887;27;20234;-76
2022/10/20 05:59:10;;;;;;;2.73;1.43;;;15.50;69.80;;;;;;5125783;27;20200;-79
2022/10/20 06:01:46;;;;;;;2.90;1.33;;;15.50;69.70;;;;;;5125275;27;20201;-79
2022/10/20 06:04:22;;;;;;;3.17;1.47;;;15.50;69.60;;;;;;5123189;27;20211;-80
2022/10/20 06:06:50;;;;;;;1.40;1.20;;;15.50;69.60;;;;;;5126686;27;20244;-78
2022/10/20 06:09:19;;;;;;;3.63;1.77;;;15.60;69.60;;;;;;5117618;27;20275;-76
2022/10/20 06:11:48;;;;;;;3.70;2.03;;;15.70;69.70;;;;;;5124797;27;20197;-78
2022/10/20 06:14:17;;;;;;;2.93;1.37;;;15.70;69.50;;;;;;5130205;27;20223;-78
2022/10/20 06:16:45;;;;;;;4.57;1.30;;;15.70;69.50;;;;;;5126297;27;20722;-81
2022/10/20 06:19:14;;;;;;;7.17;1.50;;;15.80;69.40;;;;;;5123522;27;20220;-80
2022/10/20 06:21:43;;;;;;;3.13;1.40;;;15.80;69.30;;;;;;5129017;27;20196;-79
2022/10/20 06:24:12;;;;;;;4.13;1.67;;;15.90;69.20;;;;;;5131897;27;20192;-82
2022/10/20 06:26:40;;;;;;;4.80;1.50;;;15.90;68.50;;;;;;5128107;27;20526;-76
2022/10/20 06:29:11;;;;;;;3.57;1.27;;;16.00;68.80;;;;;;5122792;27;20231;-80
2022/10/20 06:31:41;;;;;;;6.33;2.03;;;16.00;68.50;;;;;;5124402;27;20188;-80
2022/10/20 06:34:13;;;;;;;3.53;1.40;;;16.00;68.40;;;;;;5131146;27;20279;-82
2022/10/20 06:36:44;;;;;;;3.10;1.33;;;16.00;68.20;;;;;;5127274;27;20208;-82
2022/10/20 06:39:14;;;;;;;4.53;1.37;;;16.00;67.80;;;;;;5129266;27;20216;-81
2022/10/20 06:41:42;;;;;;;4.70;1.50;;;16.10;67.90;;;;;;5115671;27;20224;-79
2022/10/20 06:44:11;;;;;;;2.50;1.53;;;16.10;67.80;;;;;;5122575;27;20214;-81
2022/10/20 06:46:39;;;;;;;3.60;1.03;;;16.10;67.60;;;;;;5123595;27;20258;-82
2022/10/20 06:49:08;;;;;;;3.47;1.13;;;16.10;67.60;;;;;;5128236;27;20231;-79
2022/10/20 06:51:36;;;;;;;4.37;1.30;;;16.00;67.20;;;;;;5125538;28;20232;-81
2022/10/20 06:54:12;;;;;;;4.87;1.50;;;16.00;67.10;;;;;;5124901;28;20196;-83
2022/10/20 06:56:42;;;;;;;6.83;1.57;;;16.10;67.20;;;;;;5121760;28;20216;-81
2022/10/20 06:59:11;;;;;;;1.80;1.20;;;16.10;67.20;;;;;;5124969;28;20283;-83
2022/10/20 07:01:39;;;;;;;7.67;1.47;;;16.10;67.00;;;;;;5127391;28;20708;-81
2022/10/20 07:04:13;;;;;;;2.20;1.13;;;16.10;66.60;;;;;;5121713;28;20188;-80
2022/10/20 07:06:43;;;;;;;2.90;1.70;;;16.10;66.70;;;;;;5120436;28;20220;-79
2022/10/20 07:09:15;;;;;;;5.57;1.40;;;16.10;66.50;;;;;;5129962;28;20608;-81
2022/10/20 07:11:44;;;;;;;2.60;1.70;;;16.10;66.70;;;;;;5127520;27;20279;-79
2022/10/20 07:14:13;;;;;;;7.13;1.50;;;16.10;66.70;;;;;;5120340;27;20193;-80
2022/10/20 07:16:41;;;;;;;3.17;1.40;;;16.10;66.70;;;;;;5124697;28;20246;-79
2022/10/20 07:19:10;;;;;;;6.53;2.03;;;16.10;66.70;;;;;;5122254;28;20197;-79
2022/10/20 07:21:38;;;;;;;5.10;1.90;;;16.10;66.70;;;;;;5122013;28;20713;-78
2022/10/20 07:24:13;;;;;;;5.17;1.50;;;16.10;66.20;;;;;;5124605;28;20585;-76
2022/10/20 07:26:42;;;;;;;7.03;1.60;;;16.10;65.80;;;;;;5128997;28;20220;-77
2022/10/20 07:29:11;;;;;;;2.73;1.47;;;16.10;65.80;;;;;;5126040;28;20192;-77
2022/10/20 07:31:41;;;;;;;2.73;1.50;;;16.10;65.70;;;;;;5131652;27;20196;-79
2022/10/20 07:34:11;;;;;;;4.97;1.47;;;16.10;65.90;;;;;;5123843;27;20190;-79
2022/10/20 07:36:53;;;;;;;3.37;1.20;;;16.10;66.00;;;;;;5127758;27;20208;-78
2022/10/20 07:39:23;;;;;;;3.10;1.40;;;16.10;66.00;;;;;;5124886;27;20220;-78
2022/10/20 07:41:51;;;;;;;6.00;1.27;;;16.00;65.80;;;;;;5130999;27;20662;-77
2022/10/20 07:44:20;;;;;;;4.90;1.30;;;16.10;65.90;;;;;;5129972;27;20220;-80
2022/10/20 07:46:49;;;;;;;4.73;1.40;;;16.10;65.90;;;;;;5124883;27;20227;-77
2022/10/20 07:49:31;;;;;;;2.60;1.10;;;16.10;65.80;;;;;;5124413;27;20180;-77
2022/10/20 07:52:21;;;;;;;2.33;1.23;;;16.20;65.90;;;;;;5131089;27;20212;-85
2022/10/20 07:54:51;;;;;;;1.73;1.10;;;16.20;65.90;;;;;;5130676;27;20370;-80
2022/10/20 07:57:39;;;;;;;2.23;1.00;;;16.30;65.60;;;;;;5127433;27;20233;-81
2022/10/20 08:00:08;;;;;;;5.13;1.47;;;16.30;65.50;;;;;;5132820;27;20216;-81
2022/10/20 08:02:40;;;;;;;2.43;1.10;;;16.40;65.40;;;;;;5129703;27;20281;-79
2022/10/20 08:05:09;;;;;;;1.93;1.20;;;16.40;65.40;;;;;;5131606;27;20731;-81
2022/10/20 08:07:37;;;;;;;2.90;1.13;;;16.40;64.80;;;;;;5132843;27;20218;-80
2022/10/20 08:10:08;;;;;;;4.13;1.20;;;16.40;64.80;;;;;;5128818;27;20556;-82
2022/10/20 08:12:37;;;;;;;2.00;1.13;;;16.40;64.80;;;;;;5132510;27;20200;-82
2022/10/20 08:15:06;;;;;;;3.50;1.30;;;16.50;65.00;;;;;;5130984;27;20200;-79
2022/10/20 08:17:47;;;;;;;3.43;1.20;;;16.50;64.70;;;;;;5129910;27;20201;-78
2022/10/20 08:20:16;;;;;;;4.27;1.30;;;16.50;64.60;;;;;;5127805;27;20199;-80
2022/10/20 08:22:54;;;;;;;2.00;1.03;;;16.60;64.40;;;;;;5128156;27;20231;-78
2022/10/20 08:25:24;;;;;;;2.43;1.07;;;16.50;64.40;;;;;;5129577;27;20290;-81
2022/10/20 08:27:52;;;;;;;3.00;1.33;;;16.60;64.40;;;;;;5127866;27;20192;-79
2022/10/20 08:30:21;;;;;;;3.50;1.60;;;16.60;64.10;;;;;;5127282;27;20279;-79
2022/10/20 08:32:52;;;;;;;3.57;1.23;;;16.70;64.30;;;;;;5127667;27;20188;-81
2022/10/20 08:35:20;;;;;;;6.43;1.50;;;16.70;64.10;;;;;;5128420;27;20250;-78
2022/10/20 08:37:48;;;;;;;6.93;1.27;;;16.70;63.70;;;;;;5127635;27;20284;-87
2022/10/20 08:40:20;;;;;;;1.67;1.10;;;16.70;63.60;;;;;;5125270;27;20275;-81
2022/10/20 08:42:51;;;;;;;4.23;1.40;;;16.80;63.70;;;;;;5130031;27;20211;-85
2022/10/20 08:45:39;;;;;;;4.80;1.37;;;16.80;63.70;;;;;;5121609;27;20227;-83
2022/10/20 08:48:16;;;;;;;4.67;1.70;;;16.80;63.30;;;;;;5127651;27;20239;-87
2022/10/20 08:50:47;;;;;;;4.37;1.87;;;16.90;63.10;;;;;;5130717;27;20279;-78
2022/10/20 08:53:17;;;;;;;4.10;1.10;;;16.90;62.50;;;;;;5131699;27;20188;-82
2022/10/20 08:55:46;;;;;;;5.87;1.63;;;16.90;62.50;;;;;;5130461;27;20192;-83
2022/10/20 08:58:18;;;;;;;3.23;1.30;;;17.00;62.70;;;;;;5127038;27;20695;-83
2022/10/20 09:00:48;;;;;;;5.43;1.30;;;17.10;62.60;;;;;;5129545;27;20192;-81
2022/10/20 09:03:20;;;;;;;1.70;1.07;;;17.20;62.20;;;;;;5128135;27;20216;-78
2022/10/20 09:05:55;;;;;;;5.40;1.20;;;17.30;62.20;;;;;;5120930;27;20273;-79
2022/10/20 09:08:29;;;;;;;2.53;1.17;;;17.30;61.90;;;;;;5123159;27;20257;-79
2022/10/20 09:10:58;;;;;;;2.87;1.00;;;17.40;61.90;;;;;;5125489;27;20195;-79
2022/10/20 09:13:29;;;;;;;5.63;1.10;;;17.40;61.40;;;;;;5130353;27;20193;-81
2022/10/20 09:16:02;;;;;;;1.67;1.07;;;17.40;60.70;;;;;;5126083;27;20223;-83
2022/10/20 09:18:31;;;;;;;2.87;1.07;;;17.50;61.10;;;;;;5124642;27;20213;-85
2022/10/20 09:21:02;;;;;;;1.50;1.03;;;17.50;61.10;;;;;;5126486;27;20192;-82
2022/10/20 09:23:36;;;;;;;7.40;1.20;;;17.60;60.90;;;;;;5129931;27;20634;-85
2022/10/20 09:26:15;;;;;;;4.57;2.17;;;17.60;61.00;;;;;;5128433;27;20212;-82
2022/10/20 09:29:07;;;;;;;2.80;1.13;;;17.60;60.50;;;;;;5131405;27;20565;-82
2022/10/20 09:31:45;;;;;;;5.73;1.67;;;17.60;60.50;;;;;;5128681;27;20200;-79
2022/10/20 09:34:24;;;;;;;2.07;1.10;;;17.60;60.60;;;;;;5125439;27;20691;-77
2022/10/20 09:36:58;;;;;;;6.33;1.60;;;17.70;60.40;;;;;;5123235;27;20388;-78
2022/10/20 09:39:28;;;;;;;3.93;1.40;;;17.70;60.30;;;;;;5123847;27;20188;-77
2022/10/20 09:42:02;;;;;;;4.27;1.23;;;17.70;60.70;;;;;;5117616;27;20246;-76
2022/10/20 09:44:39;;;;;;;5.33;1.53;;;17.70;60.30;;;;;;5123269;27;20196;-77
2022/10/20 09:47:14;;;;;;;6.73;1.33;;;17.70;60.00;;;;;;5122689;27;20188;-76
2022/10/20 09:49:45;;;;;;;8.23;1.10;;;17.70;59.80;;;;;;5130578;27;20640;-76
2022/10/20 09:52:22;;;;;;;3.30;1.20;;;17.70;59.40;;;;;;5130918;27;20223;-77
2022/10/20 09:54:51;;;;;;;6.67;1.47;;;17.80;59.60;;;;;;5126017;27;20226;-75
2022/10/20 09:57:22;;;;;;;5.30;1.47;;;17.80;59.40;;;;;;5127630;27;20319;-76
2022/10/20 09:59:53;;;;;;;4.17;1.40;;;17.70;58.90;;;;;;5127815;27;20196;-76
2022/10/20 10:02:32;;;;;;;4.23;1.40;;;17.80;58.80;;;;;;5128391;27;20533;-74
2022/10/20 10:05:17;;;;;;;4.57;1.30;;;17.80;58.90;;;;;;5116953;27;20191;-77
2022/10/20 10:07:57;;;;;;;4.23;1.10;;;17.80;58.90;;;;;;5123146;27;20184;-78
2022/10/20 10:10:28;;;;;;;1.67;1.07;;;17.90;59.00;;;;;;5124624;27;20223;-77
2022/10/20 10:12:59;;;;;;;3.13;1.23;;;17.80;58.50;;;;;;5126258;27;20651;-78
2022/10/20 10:15:32;;;;;;;3.70;1.10;;;17.90;58.90;;;;;;5121006;27;20658;-76
2022/10/20 10:18:11;;;;;;;6.97;1.67;;;18.00;58.80;;;;;;5130908;27;20672;-77
2022/10/20 10:20:40;;;;;;;2.57;1.40;;;18.00;58.60;;;;;;5121119;27;20215;-76
2022/10/20 10:23:22;;;;;;;2.53;1.20;;;18.00;58.50;;;;;;5124101;27;20254;-78
2022/10/20 10:25:51;;;;;;;3.10;1.30;;;18.10;58.50;;;;;;5120261;27;20665;-79
2022/10/20 10:28:32;;;;;;;5.40;1.40;;;18.10;58.50;;;;;;5128124;27;20645;-82
2022/10/20 10:31:21;;;;;;;2.97;0.93;;;18.10;58.50;;;;;;5127307;27;20192;-82
2022/10/20 10:33:53;;;;;;;3.03;1.23;;;18.20;58.10;;;;;;5123696;27;20189;-81
2022/10/20 10:36:31;;;;;;;4.00;1.23;;;18.20;58.00;;;;;;5123592;27;20188;-81
2022/10/20 10:38:59;;;;;;;4.47;1.37;;;18.30;57.80;;;;;;5123955;27;20208;-82
2022/10/20 10:41:47;;;;;;;7.63;1.10;;;18.30;57.40;;;;;;5127159;27;20589;-82
2022/10/20 10:44:24;;;;;;;8.43;1.50;;;18.40;57.70;;;;;;5126893;27;20640;-78
2022/10/20 10:47:02;;;;;;;2.90;1.27;;;18.40;57.80;;;;;;5125219;27;20252;-82
2022/10/20 10:49:44;;;;;;;5.20;1.23;;;18.40;57.80;;;;;;5129011;27;20195;-79
2022/10/20 10:52:29;;;;;;;7.37;1.40;;;18.50;57.70;;;;;;5124406;28;20223;-78
2022/10/20 10:55:05;;;;;;;3.77;1.37;;;18.50;57.50;;;;;;5127865;28;20238;-79
2022/10/20 10:57:45;;;;;;;3.37;1.17;;;18.50;57.30;;;;;;5128028;28;20253;-83
2022/10/20 11:00:21;;;;;;;2.87;1.30;;;18.50;57.50;;;;;;5123664;28;20296;-76
2022/10/20 11:03:00;;;;;;;2.67;1.30;;;18.60;57.40;;;;;;5121695;28;20192;-81
2022/10/20 11:05:53;;;;;;;7.63;1.90;;;18.60;57.30;;;;;;5125884;27;20283;-79
2022/10/20 11:08:45;;;;;;;4.00;1.23;;;18.60;57.50;;;;;;5130167;27;20192;-82
2022/10/20 11:11:24;;;;;;;2.57;1.10;;;18.60;57.20;;;;;;5126771;27;20899;-80
2022/10/20 11:14:07;;;;;;;5.70;1.03;;;18.70;57.00;;;;;;5121105;27;20215;-75
2022/10/20 11:16:40;;;;;;;2.37;1.20;;;18.70;57.20;;;;;;5131294;27;20188;-77
2022/10/20 11:19:47;;;;;;;10.40;1.37;;;18.70;57.30;;;;;;5120123;27;20201;-79
2022/10/20 11:22:28;;;;;;;3.83;1.20;;;18.80;56.80;;;;;;5116462;27;20295;-80
2022/10/20 11:25:05;;;;;;;1.97;0.97;;;18.70;56.40;;;;;;5127138;27;20618;-79
2022/10/20 11:27:36;;;;;;;4.53;2.07;;;18.80;56.60;;;;;;5129533;27;20220;-81
2022/10/20 11:30:17;;;;;;;2.67;1.20;;;18.80;56.40;;;;;;5126759;27;20185;-81
2022/10/20 11:32:52;;;;;;;4.30;1.30;;;18.80;56.00;;;;;;5128686;27;20309;-80
2022/10/20 11:35:31;;;;;;;3.10;1.30;;;18.80;56.20;;;;;;5123262;27;20244;-80
2022/10/20 11:38:15;;;;;;;5.80;1.30;;;18.80;56.10;;;;;;5123661;27;20676;-78
2022/10/20 11:40:49;;;;;;;2.50;1.40;;;18.80;55.70;;;;;;5125528;27;20237;-78
2022/10/20 11:43:20;;;;;;;4.40;1.00;;;18.90;55.90;;;;;;5116003;27;20261;-78
2022/10/20 11:45:54;;;;;;;4.40;1.30;;;18.90;55.90;;;;;;5126068;27;20181;-81
2022/10/20 11:48:26;;;;;;;5.57;1.50;;;18.90;55.70;;;;;;5122785;27;20310;-82
2022/10/20 11:51:07;;;;;;;3.27;0.93;;;19.00;55.70;;;;;;5123535;27;20245;-82
2022/10/20 11:53:47;;;;;;;6.10;1.40;;;19.00;55.60;;;;;;5122036;27;20203;-82
2022/10/20 11:56:42;;;;;;;5.07;1.33;;;19.00;55.70;;;;;;5124880;27;20180;-81
2022/10/20 11:59:38;;;;;;;5.23;1.50;;;19.00;55.70;;;;;;5127216;27;20200;-79
2022/10/20 12:02:52;;;;;;;6.70;1.50;;;19.10;55.60;;;;;;5129720;27;20276;-76
2022/10/20 12:05:48;;;;;;;4.93;1.57;;;19.10;55.40;;;;;;5101894;27;20219;-78
2022/10/20 12:08:43;;;;;;;3.93;1.30;;;19.10;55.20;;;;;;5125882;27;20237;-80
2022/10/20 12:11:18;;;;;;;7.93;1.40;;;19.10;55.10;;;;;;5121178;27;20659;-80
2022/10/20 12:25:50;;;;;;;3.65;1.65;;;19.10;53.80;;;;;;5138113;27;20592;-76
2022/10/20 12:28:41;;;;;;;5.37;1.60;;;19.30;54.90;;;;;;5115427;28;20200;-79
2022/10/20 12:31:10;;;;;;;3.67;1.47;;;19.30;54.90;;;;;;5122334;28;20981;-80
2022/10/20 12:33:41;;;;;;;3.70;1.33;;;19.40;54.70;;;;;;5119400;27;20543;-81
2022/10/20 12:36:28;;;;;;;4.80;1.30;;;19.40;55.00;;;;;;5123504;28;20208;-82
2022/10/20 12:39:15;;;;;;;4.57;1.70;;;19.50;55.20;;;;;;5122298;27;20177;-77
2022/10/20 12:41:56;;;;;;;7.53;1.50;;;19.60;54.90;;;;;;5116793;27;20604;-81
2022/10/20 12:44:27;;;;;;;2.83;1.47;;;19.60;53.80;;;;;;5116151;27;20291;-79
2022/10/20 12:46:59;;;;;;;8.07;1.52;;;19.60;53.30;;;;;;5118846;27;20246;-80
2022/10/20 12:49:32;;;;;;;4.05;1.42;;;19.60;53.50;;;;;;5118510;27;20214;-81
2022/10/20 12:52:02;;;;;;;4.90;1.80;;;19.60;53.70;;;;;;5122118;27;20191;-80
2022/10/20 12:54:35;;;;;;;2.58;1.35;;;19.70;54.80;;;;;;5126364;27;20272;-79
2022/10/20 12:57:25;;;;;;;6.60;1.60;;;19.70;53.50;;;;;;5123512;27;20195;-76
2022/10/20 12:59:54;;;;;;;10.07;1.77;;;19.80;53.50;;;;;;5116709;27;20189;-80
2022/10/20 13:02:47;;;;;;;6.60;1.20;;;19.80;53.10;;;;;;5126943;27;20687;-82
2022/10/20 13:05:47;;;;;;;5.10;1.30;;;19.80;53.20;;;;;;5121212;27;20217;-80
2022/10/20 13:08:31;;;;;;;2.08;1.17;;;19.80;53.10;;;;;;5122818;27;20561;-79
2022/10/20 13:11:48;;;;;;;6.10;1.30;;;19.80;53.10;;;;;;5119700;27;20594;-79
2022/10/20 13:14:45;;;;;;;7.57;1.30;;;19.80;52.90;;;;;;5055401;28;20226;-80
2022/10/20 13:17:21;;;;;;;11.90;2.50;;;19.80;53.00;;;;;;5094374;27;20246;-79
2022/10/20 13:19:56;;;;;;;4.90;1.70;;;19.70;53.20;;;;;;5098965;28;20189;-78
2022/10/20 13:22:38;;;;;;;2.97;1.73;;;19.70;52.80;;;;;;5101258;28;20238;-80
2022/10/20 13:25:14;;;;;;;3.13;1.47;;;19.80;52.90;;;;;;5098087;28;20675;-81
2022/10/20 13:27:42;;;;;;;8.90;1.43;;;19.80;52.50;;;;;;5090134;28;20231;-80
2022/10/20 13:30:20;;;;;;;2.23;1.20;;;19.90;52.10;;;;;;5090391;28;20288;-77